createdAt,value
2022-12-08T00:00:53.551Z,15.37
2022-12-08T00:03:21.313Z,14.33
2022-12-08T00:06:07.625Z,14.73
2022-12-08T00:08:53.592Z,14.43
2022-12-08T00:11:21.350Z,14.70
2022-12-08T00:13:50.278Z,13.93
2022-12-08T00:16:17.889Z,14.67
2022-12-08T00:18:45.643Z,14.27
2022-12-08T00:21:13.210Z,14.93
2022-12-08T00:23:40.874Z,14.47
2022-12-08T00:26:08.622Z,15.07
2022-12-08T00:28:36.478Z,14.63
2022-12-08T00:31:10.210Z,13.97
2022-12-08T00:33:38.162Z,15.20
2022-12-08T00:36:08.961Z,14.80
2022-12-08T00:38:36.904Z,15.63
2022-12-08T00:41:05.190Z,15.77
2022-12-08T00:43:32.747Z,14.83
2022-12-08T00:46:00.379Z,14.73
2022-12-08T00:48:29.430Z,15.93
2022-12-08T00:50:57.034Z,14.67
2022-12-08T00:53:24.666Z,14.37
2022-12-08T00:55:52.250Z,14.33
2022-12-08T00:58:19.847Z,15.03
2022-12-08T01:00:47.516Z,15.40
2022-12-08T01:03:15.198Z,15.13
2022-12-08T01:05:44.511Z,15.20
2022-12-08T01:08:12.146Z,15.73
2022-12-08T01:10:39.773Z,15.30
2022-12-08T01:13:07.358Z,15.23
2022-12-08T01:15:35.037Z,14.27
2022-12-08T01:18:03.344Z,14.30
2022-12-08T01:20:30.940Z,15.13
2022-12-08T01:22:59.857Z,15.43
2022-12-08T01:25:27.488Z,15.67
2022-12-08T01:27:55.882Z,14.17
2022-12-08T01:30:23.482Z,14.80
2022-12-08T01:32:51.072Z,15.43
2022-12-08T01:35:19.066Z,15.47
2022-12-08T01:37:46.632Z,15.40
2022-12-08T01:40:15.646Z,14.33
2022-12-08T01:42:43.226Z,15.87
2022-12-08T01:45:15.775Z,16.43
2022-12-08T01:47:45.204Z,15.90
2022-12-08T01:50:14.955Z,17.27
2022-12-08T01:52:45.461Z,15.83
2022-12-08T01:55:17.937Z,15.47
2022-12-08T01:57:48.515Z,16.00
2022-12-08T02:00:18.644Z,16.20
2022-12-08T02:02:54.958Z,15.93
2022-12-08T02:05:24.644Z,15.83
2022-12-08T02:07:53.438Z,15.57
2022-12-08T02:10:26.717Z,15.63
2022-12-08T02:12:55.954Z,15.53
2022-12-08T02:15:27.439Z,16.20
2022-12-08T02:18:02.367Z,15.37
2022-12-08T02:20:46.874Z,16.33
2022-12-08T02:23:23.555Z,15.37
2022-12-08T02:26:07.845Z,15.13
2022-12-08T02:29:14.714Z,15.77
2022-12-08T02:31:52.981Z,15.47
2022-12-08T02:34:28.430Z,16.90
2022-12-08T02:37:01.297Z,16.87
2022-12-08T02:39:36.352Z,16.33
2022-12-08T02:42:10.978Z,16.10
2022-12-08T02:44:40.863Z,16.80
2022-12-08T02:47:11.105Z,17.30
2022-12-08T02:49:40.672Z,16.33
2022-12-08T02:52:29.300Z,16.03
2022-12-08T02:54:58.950Z,16.73
2022-12-08T02:57:32.959Z,16.87
2022-12-08T03:00:08.891Z,18.73
2022-12-08T03:02:50.584Z,16.33
2022-12-08T03:05:28.925Z,16.63
2022-12-08T03:08:01.866Z,17.83
2022-12-08T03:10:34.044Z,16.73
2022-12-08T03:13:05.787Z,18.30
2022-12-08T03:15:33.996Z,17.97
2022-12-08T03:18:01.818Z,19.13
2022-12-08T03:20:32.397Z,18.33
2022-12-08T03:23:01.530Z,18.60
2022-12-08T03:25:32.054Z,17.87
2022-12-08T03:28:00.670Z,16.93
2022-12-08T03:30:28.880Z,17.17
2022-12-08T03:33:00.685Z,17.47
2022-12-08T03:35:32.685Z,18.70
2022-12-08T03:38:04.883Z,17.30
2022-12-08T03:40:32.562Z,19.20
2022-12-08T03:43:00.183Z,19.30
2022-12-08T03:45:27.803Z,18.20
2022-12-08T03:47:55.389Z,18.10
2022-12-08T03:50:23.085Z,18.77
2022-12-08T03:52:52.127Z,18.47
2022-12-08T03:55:21.374Z,18.77
2022-12-08T03:57:48.954Z,17.97
2022-12-08T04:00:17.920Z,17.40
2022-12-08T04:02:45.591Z,17.70
2022-12-08T04:05:13.198Z,18.27
2022-12-08T04:07:40.843Z,19.07
2022-12-08T04:10:11.143Z,19.10
2022-12-08T04:12:38.780Z,17.47
2022-12-08T04:15:07.261Z,17.63
2022-12-08T04:17:34.812Z,16.97
2022-12-08T04:20:02.859Z,18.13
2022-12-08T04:22:30.745Z,17.57
2022-12-08T04:24:58.524Z,17.17
2022-12-08T04:27:27.525Z,16.60
2022-12-08T04:29:55.129Z,18.10
2022-12-08T04:32:23.232Z,17.57
2022-12-08T04:34:51.482Z,17.60
2022-12-08T04:37:19.043Z,17.80
2022-12-08T04:39:46.608Z,17.50
2022-12-08T04:42:14.225Z,17.00
2022-12-08T04:44:43.140Z,17.30
2022-12-08T04:47:10.897Z,16.97
2022-12-08T04:49:38.519Z,15.83
2022-12-08T04:52:06.445Z,15.90
2022-12-08T04:54:34.193Z,16.60
2022-12-08T04:57:01.761Z,15.47
2022-12-08T04:59:29.343Z,15.93
2022-12-08T05:01:58.372Z,15.93
2022-12-08T05:04:26.326Z,16.53
2022-12-08T05:06:53.890Z,16.50
2022-12-08T05:09:21.468Z,15.00
2022-12-08T05:11:49.429Z,15.10
2022-12-08T05:14:17.997Z,15.83
2022-12-08T05:16:46.269Z,15.83
2022-12-08T05:19:16.079Z,14.43
2022-12-08T05:21:44.325Z,15.60
2022-12-08T05:24:11.957Z,16.63
2022-12-08T05:26:39.569Z,15.67
2022-12-08T05:29:07.276Z,16.47
2022-12-08T05:31:35.054Z,13.87
2022-12-08T05:34:03.559Z,15.17
2022-12-08T05:36:32.636Z,15.37
2022-12-08T05:39:00.225Z,16.37
2022-12-08T05:41:28.479Z,16.73
2022-12-08T05:43:56.060Z,14.83
2022-12-08T05:46:23.987Z,16.17
2022-12-08T05:48:51.729Z,15.83
2022-12-08T05:51:20.941Z,16.43
2022-12-08T05:53:50.808Z,14.27
2022-12-08T05:56:18.482Z,15.53
2022-12-08T05:58:46.423Z,15.40
2022-12-08T06:01:20.568Z,15.63
2022-12-08T06:03:48.191Z,16.40
2022-12-08T06:06:15.837Z,15.70
2022-12-08T06:08:43.525Z,16.87
2022-12-08T06:11:18.839Z,17.60
2022-12-08T06:13:46.418Z,16.30
2022-12-08T06:16:14.080Z,17.97
2022-12-08T06:18:41.736Z,15.23
2022-12-08T06:21:11.974Z,17.27
2022-12-08T06:23:39.787Z,16.93
2022-12-08T06:26:09.725Z,16.90
2022-12-08T06:28:39.594Z,17.17
2022-12-08T06:31:09.177Z,17.73
2022-12-08T06:33:37.416Z,17.40
2022-12-08T06:36:05.247Z,18.37
2022-12-08T06:38:32.821Z,18.00
2022-12-08T06:41:00.979Z,16.97
2022-12-08T06:43:28.757Z,17.67
2022-12-08T06:45:57.722Z,19.50
2022-12-08T06:48:25.290Z,18.77
2022-12-08T06:50:52.950Z,19.13
2022-12-08T06:53:21.737Z,19.03
2022-12-08T06:56:00.525Z,17.93
2022-12-08T06:58:28.126Z,18.67
2022-12-08T07:00:57.118Z,18.10
2022-12-08T07:03:24.717Z,18.97
2022-12-08T07:06:01.759Z,19.97
2022-12-08T07:08:31.330Z,19.17
2022-12-08T07:10:58.965Z,20.17
2022-12-08T07:13:26.588Z,22.00
2022-12-08T07:15:54.163Z,19.77
2022-12-08T07:18:23.185Z,21.33
2022-12-08T07:20:50.774Z,20.87
2022-12-08T07:23:18.346Z,20.17
2022-12-08T07:25:45.948Z,21.37
2022-12-08T07:28:13.636Z,21.03
2022-12-08T07:30:41.298Z,22.90
2022-12-08T07:33:08.985Z,23.13
2022-12-08T07:35:38.278Z,21.37
2022-12-08T07:38:05.931Z,24.63
2022-12-08T07:40:33.500Z,24.87
2022-12-08T07:43:01.048Z,24.40
2022-12-08T07:45:31.718Z,25.10
2022-12-08T07:47:59.729Z,23.80
2022-12-08T07:50:27.433Z,24.70
2022-12-08T07:52:56.348Z,24.23
2022-12-08T07:55:24.005Z,24.80
2022-12-08T07:57:51.630Z,25.90
2022-12-08T08:00:20.035Z,24.83
2022-12-08T08:02:47.709Z,24.13
2022-12-08T08:05:15.349Z,24.17
2022-12-08T08:07:43.714Z,25.13
2022-12-08T08:10:13.565Z,23.30
2022-12-08T08:12:41.182Z,25.37
2022-12-08T08:15:09.823Z,24.57
2022-12-08T08:17:38.582Z,26.23
2022-12-08T08:20:07.922Z,25.43
2022-12-08T08:22:36.678Z,26.53
2022-12-08T08:25:05.612Z,24.17
2022-12-08T08:27:34.596Z,24.57
2022-12-08T08:30:03.079Z,25.03
2022-12-08T08:32:33.920Z,23.77
2022-12-08T08:35:01.757Z,25.33
2022-12-08T08:37:29.445Z,26.27
2022-12-08T08:39:57.549Z,24.80
2022-12-08T08:42:25.111Z,23.63
2022-12-08T08:44:54.086Z,24.07
2022-12-08T08:47:21.658Z,24.00
2022-12-08T08:49:49.275Z,26.47
2022-12-08T08:52:16.884Z,26.47
2022-12-08T08:54:44.485Z,25.87
2022-12-08T08:57:12.083Z,27.63
2022-12-08T08:59:39.768Z,27.77
2022-12-08T09:02:12.267Z,28.10
2022-12-08T09:04:39.899Z,26.70
2022-12-08T09:07:07.586Z,26.00
2022-12-08T09:09:35.254Z,28.97
2022-12-08T09:12:02.809Z,27.27
2022-12-08T09:14:30.452Z,25.30
2022-12-08T09:16:58.072Z,26.23
2022-12-08T09:19:27.012Z,30.97
2022-12-08T09:21:54.645Z,28.17
2022-12-08T09:24:23.135Z,32.57
2022-12-08T09:26:51.184Z,30.33
2022-12-08T09:29:18.768Z,29.27
2022-12-08T09:31:46.396Z,31.07
2022-12-08T09:34:14.361Z,30.90
2022-12-08T09:36:43.876Z,28.63
2022-12-08T09:39:11.491Z,29.60
2022-12-08T09:41:48.344Z,28.07
2022-12-08T09:44:39.177Z,28.37
2022-12-08T09:47:11.353Z,28.63
2022-12-08T09:49:40.898Z,26.17
2022-12-08T09:52:14.643Z,26.90
2022-12-08T09:54:42.178Z,27.10
2022-12-08T09:57:16.047Z,26.63
2022-12-08T09:59:46.499Z,25.90
2022-12-08T10:02:22.493Z,24.93
2022-12-08T10:04:50.254Z,25.40
2022-12-08T10:07:22.354Z,24.13
2022-12-08T10:09:56.579Z,23.10
2022-12-08T10:12:28.177Z,23.37
2022-12-08T10:14:59.689Z,23.80
2022-12-08T10:17:29.034Z,22.27
2022-12-08T10:20:00.498Z,23.20
2022-12-08T10:22:39.849Z,22.63
2022-12-08T10:25:15.060Z,23.27
2022-12-08T10:27:42.695Z,22.23
2022-12-08T10:30:13.015Z,23.33
2022-12-08T10:32:40.957Z,23.83
2022-12-08T10:35:11.216Z,23.67
2022-12-08T10:37:40.860Z,24.00
2022-12-08T10:40:12.168Z,23.57
2022-12-08T10:42:42.020Z,22.90
2022-12-08T10:45:31.154Z,23.40
2022-12-08T10:48:01.756Z,20.77
2022-12-08T10:50:32.301Z,22.07
2022-12-08T10:53:02.550Z,19.93
2022-12-08T10:55:30.958Z,22.30
2022-12-08T10:57:58.606Z,22.10
2022-12-08T11:00:28.428Z,21.63
2022-12-08T11:03:01.506Z,21.97
2022-12-08T11:05:34.474Z,21.60
2022-12-08T11:08:04.581Z,22.37
2022-12-08T11:10:35.813Z,23.23
2022-12-08T11:13:05.940Z,23.57
2022-12-08T11:15:37.176Z,22.40
2022-12-08T11:18:11.983Z,25.00
2022-12-08T11:20:42.194Z,23.10
2022-12-08T11:23:23.275Z,22.07
2022-12-08T11:25:51.580Z,21.13
2022-12-08T11:28:24.148Z,23.70
2022-12-08T11:30:57.598Z,23.73
2022-12-08T11:33:26.633Z,24.40
2022-12-08T11:35:59.569Z,24.20
2022-12-08T11:38:29.233Z,22.17
2022-12-08T11:40:59.813Z,22.53
2022-12-08T11:43:31.839Z,24.20
2022-12-08T11:46:01.930Z,25.43
2022-12-08T11:48:35.178Z,22.87
2022-12-08T11:51:06.729Z,23.53
2022-12-08T11:53:44.176Z,24.03
2022-12-08T11:56:18.494Z,25.20
2022-12-08T11:58:49.811Z,24.47
2022-12-08T12:01:20.458Z,21.33
2022-12-08T12:03:53.476Z,22.93
2022-12-08T12:06:53.036Z,23.77
2022-12-08T12:09:26.817Z,22.67
2022-12-08T12:12:19.838Z,22.77
2022-12-08T12:15:18.533Z,22.47
2022-12-08T12:17:48.654Z,22.70
2022-12-08T12:20:20.037Z,23.30
2022-12-08T12:22:50.662Z,24.47
2022-12-08T12:25:23.021Z,24.07
2022-12-08T12:27:57.197Z,22.97
2022-12-08T12:30:26.682Z,24.33
2022-12-08T12:32:56.653Z,22.10
2022-12-08T12:35:32.187Z,22.37
2022-12-08T12:38:04.585Z,21.17
2022-12-08T12:40:40.841Z,19.73
2022-12-08T12:43:25.458Z,19.10
2022-12-08T12:46:31.511Z,19.43
2022-12-08T12:49:48.653Z,19.50
2022-12-08T12:52:37.619Z,18.93
2022-12-08T12:55:23.016Z,19.10
2022-12-08T12:57:54.160Z,19.10
2022-12-08T13:00:23.151Z,21.73
2022-12-08T13:02:52.007Z,19.17
2022-12-08T13:05:21.629Z,18.27
2022-12-08T13:07:52.405Z,18.90
2022-12-08T13:10:22.850Z,20.30
2022-12-08T13:13:06.943Z,19.23
2022-12-08T13:15:37.000Z,21.10
2022-12-08T13:18:05.355Z,21.03
2022-12-08T13:20:41.946Z,20.43
2022-12-08T13:23:26.747Z,21.20
2022-12-08T13:26:10.697Z,19.07
2022-12-08T13:29:11.743Z,20.07
2022-12-08T13:31:48.355Z,19.73
2022-12-08T13:34:21.347Z,21.27
2022-12-08T13:37:08.123Z,22.80
2022-12-08T13:39:43.616Z,21.17
2022-12-08T13:42:18.322Z,21.67
2022-12-08T13:45:24.212Z,21.27
2022-12-08T13:48:05.981Z,20.37
2022-12-08T13:59:08.796Z,21.13
2022-12-08T14:01:43.148Z,20.70
2022-12-08T14:04:47.479Z,22.10
2022-12-08T14:07:04.062Z,19.07
2022-12-08T14:09:35.293Z,22.10
2022-12-08T14:12:04.927Z,20.50
2022-12-08T14:15:01.242Z,25.00
2022-12-08T14:17:23.039Z,22.43
2022-12-08T14:19:57.337Z,22.63
2022-12-08T14:22:25.358Z,21.03
2022-12-08T14:24:54.919Z,20.37
2022-12-08T14:27:24.694Z,22.63
2022-12-08T14:29:53.322Z,21.03
2022-12-08T14:32:28.218Z,22.63
2022-12-08T14:34:59.537Z,22.17
2022-12-08T14:37:28.372Z,21.10
2022-12-08T14:39:59.554Z,23.80
2022-12-08T14:42:28.506Z,25.23
2022-12-08T14:44:58.040Z,23.07
2022-12-08T14:47:30.197Z,25.43
2022-12-08T14:49:59.111Z,24.47
2022-12-08T14:52:26.800Z,25.27
2022-12-08T14:54:54.797Z,25.77
2022-12-08T14:57:22.697Z,24.77
2022-12-08T14:59:50.515Z,24.53
2022-12-08T15:02:27.672Z,25.73
2022-12-08T15:05:00.000Z,23.10
2022-12-08T15:07:29.767Z,24.47
2022-12-08T15:10:21.157Z,25.40
2022-12-08T15:13:00.753Z,29.83
2022-12-08T15:15:29.536Z,34.13
2022-12-08T15:18:04.995Z,31.40
2022-12-08T15:20:41.544Z,30.97
2022-12-08T15:23:21.262Z,27.67
2022-12-08T15:25:49.285Z,25.27
2022-12-08T15:28:18.508Z,27.10
2022-12-08T15:30:46.156Z,26.20
2022-12-08T15:33:14.480Z,27.50
2022-12-08T15:35:43.542Z,28.10
2022-12-08T15:38:18.269Z,24.83
2022-12-08T15:40:45.893Z,26.10
2022-12-08T15:43:13.782Z,24.13
2022-12-08T15:45:50.550Z,25.27
2022-12-08T15:48:26.883Z,25.83
2022-12-08T15:50:56.402Z,25.33
2022-12-08T15:53:24.385Z,30.73
2022-12-08T15:58:56.483Z,27.07
2022-12-08T16:01:25.542Z,27.67
2022-12-08T16:07:20.148Z,29.90
2022-12-08T16:09:33.334Z,28.07
2022-12-08T16:12:18.983Z,29.17
2022-12-08T16:15:48.604Z,28.53
2022-12-08T16:17:35.209Z,44.70
2022-12-08T16:20:03.633Z,30.73
2022-12-08T16:25:22.078Z,46.73
2022-12-08T16:28:02.828Z,31.50
2022-12-08T16:30:36.536Z,31.13
2022-12-08T16:33:04.189Z,30.93
2022-12-08T16:35:32.296Z,32.83
2022-12-08T16:38:01.246Z,28.67
2022-12-08T16:40:28.818Z,30.43
2022-12-08T16:42:55.496Z,32.73
2022-12-08T16:45:25.198Z,34.27
2022-12-08T16:47:55.222Z,33.87
2022-12-08T16:50:25.017Z,31.13
2022-12-08T16:52:57.959Z,31.93
2022-12-08T16:55:27.323Z,32.40
2022-12-08T16:57:55.035Z,32.70
2022-12-08T17:00:24.659Z,31.97
2022-12-08T17:02:52.726Z,31.03
2022-12-08T17:05:22.748Z,36.63
2022-12-08T17:07:52.312Z,31.70
2022-12-08T17:10:22.945Z,32.67
2022-12-08T17:12:52.397Z,32.07
2022-12-08T17:15:22.451Z,33.07
2022-12-08T17:17:50.238Z,31.93
2022-12-08T17:20:20.113Z,32.87
2022-12-08T17:22:48.040Z,33.23
2022-12-08T17:25:16.015Z,32.60
2022-12-08T17:27:43.883Z,31.63
2022-12-08T17:30:15.714Z,31.87
2022-12-08T17:32:43.829Z,34.07
2022-12-08T17:35:11.971Z,32.87
2022-12-08T17:37:39.540Z,31.90
2022-12-08T17:40:08.890Z,33.50
2022-12-08T17:42:37.957Z,30.87
2022-12-08T17:45:06.620Z,32.47
2022-12-08T17:47:35.966Z,31.10
2022-12-08T17:50:04.313Z,35.07
2022-12-08T17:52:32.328Z,34.43
2022-12-08T17:54:59.881Z,34.47
2022-12-08T17:57:27.749Z,33.63
2022-12-08T17:59:55.410Z,31.63
2022-12-08T18:02:23.228Z,33.07
2022-12-08T18:04:52.229Z,31.33
2022-12-08T18:07:19.839Z,32.60
2022-12-08T18:09:47.449Z,34.73
2022-12-08T18:12:19.270Z,33.90
2022-12-08T18:14:50.345Z,31.20
2022-12-08T18:17:18.104Z,32.97
2022-12-08T18:19:45.731Z,31.77
2022-12-08T18:22:16.011Z,30.37
2022-12-08T18:24:44.107Z,34.13
2022-12-08T18:27:11.700Z,29.73
2022-12-08T18:29:39.267Z,30.03
2022-12-08T18:32:06.998Z,31.80
2022-12-08T18:34:34.986Z,27.27
2022-12-08T18:37:03.117Z,27.70
2022-12-08T18:39:33.421Z,24.67
2022-12-08T18:42:02.599Z,25.73
2022-12-08T18:44:31.066Z,25.77
2022-12-08T18:46:58.875Z,25.83
2022-12-08T18:49:26.535Z,27.47
2022-12-08T18:51:54.116Z,27.13
2022-12-08T18:54:27.748Z,33.20
2022-12-08T18:57:06.172Z,29.03
2022-12-08T18:59:34.262Z,28.90
2022-12-08T19:02:01.960Z,31.13
2022-12-08T19:04:31.890Z,31.00
2022-12-08T19:07:01.218Z,30.07
2022-12-08T19:09:29.017Z,31.13
2022-12-08T19:11:57.191Z,28.83
2022-12-08T19:14:28.539Z,27.27
2022-12-08T19:16:56.333Z,25.90
2022-12-08T19:19:23.974Z,25.63
2022-12-08T19:21:51.639Z,22.87
2022-12-08T19:24:19.291Z,24.30
2022-12-08T19:26:47.711Z,24.67
2022-12-08T19:29:15.328Z,24.97
2022-12-08T19:31:44.612Z,23.60
2022-12-08T19:34:14.194Z,23.23
2022-12-08T19:36:43.213Z,21.93
2022-12-08T19:39:41.619Z,23.07
2022-12-08T19:42:32.193Z,22.20
2022-12-08T19:45:03.522Z,24.07
2022-12-08T19:47:32.799Z,25.73
2022-12-08T19:50:14.352Z,27.30
2022-12-08T19:52:42.056Z,27.40
2022-12-08T19:55:10.319Z,29.20
2022-12-08T19:57:38.316Z,26.80
2022-12-08T20:00:08.031Z,25.20
2022-12-08T20:02:37.547Z,25.63
2022-12-08T20:05:05.642Z,26.07
2022-12-08T20:07:33.509Z,26.33
2022-12-08T20:10:02.430Z,29.40
2022-12-08T20:12:30.225Z,30.13
2022-12-08T20:14:58.194Z,27.30
2022-12-08T20:17:25.777Z,37.80
2022-12-08T20:19:54.780Z,29.33
2022-12-08T20:22:22.367Z,30.67
2022-12-08T20:24:57.240Z,28.60
2022-12-08T20:27:29.011Z,32.87
2022-12-08T20:29:56.933Z,31.57
2022-12-08T20:32:24.564Z,30.40
2022-12-08T20:34:52.244Z,30.80
2022-12-08T20:37:21.206Z,31.00
2022-12-08T20:39:48.855Z,28.70
2022-12-08T20:42:16.489Z,33.07
2022-12-08T20:44:44.443Z,31.53
2022-12-08T20:47:12.984Z,30.97
2022-12-08T20:49:40.722Z,33.17
2022-12-08T20:52:08.592Z,33.00
2022-12-08T20:54:38.118Z,34.80
2022-12-08T20:57:06.048Z,34.60
2022-12-08T20:59:33.949Z,33.83
2022-12-08T21:02:01.929Z,34.77
2022-12-08T21:04:29.869Z,32.80
2022-12-08T21:06:57.633Z,30.80
2022-12-08T21:09:25.312Z,29.93
2022-12-08T21:11:54.612Z,30.17
2022-12-08T21:14:22.495Z,32.17
2022-12-08T21:16:50.828Z,36.77
2022-12-08T21:19:19.914Z,30.80
2022-12-08T21:21:48.235Z,28.57
2022-12-08T21:24:16.681Z,29.27
2022-12-08T21:26:44.514Z,28.13
2022-12-08T21:29:14.034Z,32.93
2022-12-08T21:31:41.818Z,30.07
2022-12-08T21:34:11.171Z,35.03
2022-12-08T21:36:39.128Z,32.93
2022-12-08T21:39:12.698Z,28.17
2022-12-08T21:41:57.984Z,25.67
2022-12-08T21:44:27.146Z,24.20
2022-12-08T21:46:54.819Z,23.77
2022-12-08T21:49:22.918Z,23.90
2022-12-08T21:51:50.726Z,23.73
2022-12-08T21:54:19.388Z,24.87
2022-12-08T21:56:47.664Z,23.33
2022-12-08T21:59:15.499Z,24.00
2022-12-08T22:01:44.750Z,22.67
2022-12-08T22:04:13.688Z,25.17
2022-12-08T22:06:41.278Z,22.83
2022-12-08T22:09:11.770Z,23.90
2022-12-08T22:11:39.562Z,21.50
2022-12-08T22:14:12.466Z,23.83
2022-12-08T22:16:42.280Z,22.60
2022-12-08T22:19:12.484Z,24.67
2022-12-08T22:21:40.410Z,23.43
2022-12-08T22:24:09.005Z,23.60
2022-12-08T22:26:36.839Z,24.30
2022-12-08T22:29:04.839Z,22.03
2022-12-08T22:31:32.886Z,22.50
2022-12-08T22:34:01.354Z,23.03
2022-12-08T22:36:30.600Z,22.23
2022-12-08T22:38:58.349Z,22.60
2022-12-08T22:41:26.077Z,22.67
2022-12-08T22:43:53.851Z,24.60
2022-12-08T22:46:23.658Z,25.10
2022-12-08T22:48:51.939Z,29.10
2022-12-08T22:51:20.437Z,27.27
2022-12-08T22:53:49.555Z,25.17
2022-12-08T22:56:18.250Z,27.57
2022-12-08T22:58:46.444Z,27.40
2022-12-08T23:01:23.722Z,29.07
2022-12-08T23:03:51.425Z,29.57
2022-12-08T23:06:19.778Z,29.90
2022-12-08T23:08:49.135Z,30.27
2022-12-08T23:11:17.014Z,28.60
2022-12-08T23:13:44.995Z,31.40
2022-12-08T23:16:13.837Z,30.10
2022-12-08T23:18:43.541Z,30.77
2022-12-08T23:21:13.830Z,28.13
2022-12-08T23:23:41.970Z,29.67
2022-12-08T23:26:17.027Z,29.33
2022-12-08T23:28:44.853Z,30.40
2022-12-08T23:31:12.627Z,30.10
2022-12-08T23:33:40.487Z,30.10
2022-12-08T23:36:08.663Z,27.80
2022-12-08T23:38:36.400Z,29.53
2022-12-08T23:41:05.483Z,28.00
2022-12-08T23:43:35.226Z,26.57
2022-12-08T23:46:03.066Z,29.23
2022-12-08T23:48:34.480Z,30.10
2022-12-08T23:51:02.304Z,28.73
2022-12-08T23:53:30.757Z,27.77
2022-12-08T23:56:02.300Z,26.97
2022-12-08T23:58:31.250Z,28.80
